Tridell, Utah
Current Conditions -  °F | °C
As of 5:53 AM on Saturday 25 Oct 2014 (Local Time) from KVEL Reporting Station
Clear Clear  
Wind Chill: 38°   Ceiling: Unl
Heat Index: 41°   Visibility: 10mi
Dew Point: 31°   Wind: 5mph
Humidity: 67%   Direction: 270°W
Pressure: 30.24"   Gusts: NA
Location:  40.45°N, 109.85°W
Report Text: KVEL 251153Z AUTO 27004KT 10SM CLR 05/M01 A3024 RMK AO2 SLP208 T00501006 10094 20044 58004
Loading
Personal Weather Stations






























Interactive Weather Map
Tropical Storm Tracking
New forecast layout! Learn more

10-Day Weather Forecast

Advertisements
Track Severe Weather on mobile